createdAt,value
2022-07-26T00:00:54.152Z,4199
2022-07-26T00:06:06.457Z,4164
2022-07-26T00:11:18.692Z,4166
2022-07-26T00:16:31.243Z,4179
2022-07-26T00:21:43.537Z,4177
2022-07-26T00:26:55.861Z,4158
2022-07-26T00:32:08.082Z,4171
2022-07-26T00:37:20.975Z,4196
2022-07-26T00:42:32.937Z,4179
2022-07-26T00:47:45.033Z,4177
2022-07-26T00:52:57.265Z,4194
2022-07-26T00:58:09.685Z,4177
2022-07-26T01:03:22.221Z,4194
2022-07-26T01:08:34.337Z,4134
2022-07-26T01:13:46.606Z,4138
2022-07-26T01:18:58.988Z,4164
2022-07-26T01:24:11.338Z,4162
2022-07-26T01:29:23.329Z,4119
2022-07-26T01:34:35.663Z,4185
2022-07-26T01:39:47.861Z,4131
2022-07-26T01:45:00.193Z,4164
2022-07-26T01:50:13.044Z,4170
2022-07-26T01:55:25.481Z,4183
2022-07-26T02:00:37.790Z,4181
2022-07-26T02:05:49.980Z,4127
2022-07-26T02:11:03.512Z,4058
2022-07-26T02:16:14.732Z,4160
2022-07-26T02:21:27.030Z,4158
2022-07-26T02:26:39.423Z,4134
2022-07-26T02:31:51.680Z,4162
2022-07-26T02:37:03.960Z,4177
2022-07-26T02:42:16.469Z,4177
2022-07-26T02:47:28.697Z,4136
2022-07-26T02:52:41.016Z,4140
2022-07-26T02:57:53.365Z,4084
2022-07-26T03:03:05.587Z,4121
2022-07-26T03:08:17.890Z,4065
2022-07-26T03:18:42.350Z,4116
2022-07-26T03:23:54.646Z,4149
2022-07-26T03:29:07.036Z,4127
2022-07-26T03:34:19.260Z,4142
2022-07-26T03:39:31.480Z,4106
2022-07-26T03:44:43.704Z,4121
2022-07-26T03:49:56.037Z,4164
2022-07-26T03:55:08.363Z,4147
2022-07-26T04:00:20.411Z,4164
2022-07-26T04:05:32.744Z,4138
2022-07-26T04:10:44.892Z,4119
2022-07-26T04:15:57.268Z,4162
2022-07-26T04:21:09.587Z,4065
2022-07-26T04:26:21.903Z,4121
2022-07-26T04:31:34.916Z,4112
2022-07-26T04:36:46.554Z,4131
2022-07-26T04:41:59.078Z,4099
2022-07-26T04:47:11.556Z,4131
2022-07-26T04:52:23.991Z,3997
2022-07-26T04:57:36.360Z,4118
2022-07-26T05:02:48.835Z,4153
2022-07-26T05:08:01.697Z,4082
2022-07-26T05:13:13.909Z,4095
2022-07-26T05:18:26.436Z,4149
2022-07-26T05:23:38.711Z,4103
2022-07-26T05:28:50.898Z,4071
2022-07-26T05:34:03.153Z,4054
2022-07-26T05:39:16.135Z,4145
2022-07-26T05:44:27.761Z,4084
2022-07-26T05:49:40.842Z,4103
2022-07-26T05:54:52.563Z,4116
2022-07-26T06:00:04.952Z,4077
2022-07-26T06:05:17.669Z,4090
2022-07-26T06:10:30.120Z,4127
2022-07-26T06:15:42.345Z,4125
2022-07-26T06:20:54.559Z,4119
2022-07-26T06:26:06.742Z,4127
2022-07-26T06:31:19.444Z,4121
2022-07-26T06:36:31.743Z,4112
2022-07-26T06:46:56.580Z,4092
2022-07-26T06:52:08.841Z,4095
2022-07-26T06:57:21.119Z,4147
2022-07-26T07:07:45.752Z,4088
2022-07-26T07:13:18.667Z,4112
2022-07-26T07:18:31.192Z,4058
2022-07-26T07:23:43.430Z,4116
2022-07-26T07:28:55.608Z,4145
2022-07-26T07:34:08.197Z,4145
2022-07-26T07:39:21.415Z,4086
2022-07-26T07:44:34.145Z,4145
2022-07-26T07:49:46.670Z,4067
2022-07-26T07:55:18.065Z,4093
2022-07-26T08:00:11.338Z,4065
2022-07-26T08:05:23.753Z,4125
2022-07-26T08:10:38.774Z,4114
2022-07-26T08:15:51.185Z,4134
2022-07-26T08:21:04.001Z,4105
2022-07-26T08:26:16.226Z,4114
2022-07-26T08:31:29.291Z,4142
2022-07-26T08:36:49.716Z,4145
2022-07-26T08:41:54.015Z,4099
2022-07-26T08:47:06.429Z,4158
2022-07-26T08:52:19.118Z,4121
2022-07-26T08:57:31.370Z,4142
2022-07-26T09:02:43.890Z,4067
2022-07-26T09:07:56.346Z,4181
2022-07-26T09:13:08.699Z,4056
2022-07-26T09:18:22.103Z,4093
2022-07-26T09:23:34.330Z,4181
2022-07-26T09:28:46.575Z,4043
2022-07-26T09:33:59.389Z,4147
2022-07-26T09:39:11.849Z,4181
2022-07-26T09:44:24.057Z,4095
2022-07-26T09:49:40.488Z,4105
2022-07-26T09:54:49.084Z,4127
2022-07-26T10:00:01.285Z,4196
2022-07-26T10:05:13.740Z,4196
2022-07-26T10:10:28.723Z,4164
2022-07-26T10:15:40.981Z,4173
2022-07-26T10:20:53.679Z,4179
2022-07-26T10:26:05.873Z,4093
2022-07-26T10:31:18.394Z,4158
2022-07-26T10:36:30.711Z,4119
2022-07-26T10:41:43.171Z,4084
2022-07-26T10:46:55.461Z,4166
2022-07-26T10:52:07.822Z,4095
2022-07-26T10:57:20.257Z,4103
2022-07-26T11:02:32.929Z,4198
2022-07-26T11:07:45.101Z,4218
2022-07-26T11:12:57.422Z,4168
2022-07-26T11:18:09.860Z,4166
2022-07-26T11:23:22.273Z,4119
2022-07-26T11:28:34.597Z,4198
2022-07-26T11:33:46.883Z,4207
2022-07-26T11:38:59.118Z,4185
2022-07-26T11:44:11.572Z,4203
2022-07-26T11:49:36.197Z,4153
2022-07-26T11:54:35.916Z,4205
2022-07-26T11:59:48.448Z,4131
2022-07-26T12:05:00.707Z,4203
2022-07-26T12:10:12.786Z,4160
2022-07-26T12:15:24.197Z,4131
2022-07-26T12:25:49.283Z,4171
2022-07-26T12:36:12.851Z,4136
2022-07-26T12:41:25.173Z,4147
2022-07-26T12:46:37.765Z,4147
2022-07-26T12:51:49.924Z,4173
2022-07-26T12:57:02.109Z,4171
2022-07-26T13:02:14.475Z,4127
2022-07-26T13:07:26.920Z,4155
2022-07-26T13:12:39.227Z,4171
2022-07-26T13:17:51.524Z,4196
2022-07-26T13:23:04.456Z,4142
2022-07-26T13:28:18.148Z,4181
2022-07-26T13:33:30.613Z,4179
2022-07-26T13:38:43.011Z,4171
2022-07-26T13:43:55.517Z,4151
2022-07-26T13:49:08.547Z,4170
2022-07-26T13:54:20.418Z,4212
2022-07-26T14:04:45.230Z,4158
2022-07-26T14:15:13.997Z,4190
2022-07-26T14:20:22.601Z,4181
2022-07-26T14:25:35.224Z,4220
2022-07-26T14:30:47.583Z,4149
2022-07-26T14:36:00.472Z,4224
2022-07-26T14:41:13.210Z,4225
2022-07-26T14:46:25.804Z,4212
2022-07-26T14:51:38.261Z,4201
2022-07-26T14:56:53.452Z,4203
2022-07-26T15:02:06.328Z,4229
2022-07-26T15:07:18.337Z,4235
2022-07-26T15:12:30.879Z,4235
2022-07-26T15:17:43.173Z,4192
2022-07-26T15:22:55.831Z,4218
2022-07-26T15:28:08.018Z,4211
2022-07-26T15:33:20.449Z,4205
2022-07-26T15:38:32.957Z,4231
2022-07-26T15:43:48.634Z,4222
2022-07-26T15:48:57.607Z,4199
2022-07-26T15:54:09.848Z,4205
2022-07-26T15:59:21.953Z,4158
2022-07-26T16:04:34.185Z,4229
2022-07-26T16:09:46.777Z,4229
2022-07-26T16:14:59.128Z,4235
2022-07-26T16:20:11.627Z,4235
2022-07-26T16:25:24.132Z,4203
2022-07-26T16:30:36.732Z,4235
2022-07-26T16:35:49.155Z,4162
2022-07-26T16:41:01.635Z,4231
2022-07-26T16:46:13.858Z,4207
2022-07-26T16:51:26.091Z,4246
2022-07-26T16:56:38.444Z,4225
2022-07-26T17:01:51.135Z,4220
2022-07-26T17:07:23.776Z,4237
2022-07-26T17:12:16.014Z,4205
2022-07-26T17:17:28.335Z,4235
2022-07-26T17:22:40.339Z,4196
2022-07-26T17:27:52.481Z,4222
2022-07-26T17:33:04.972Z,4240
2022-07-26T17:38:17.127Z,4209
2022-07-26T17:43:33.051Z,4240
2022-07-26T17:48:41.821Z,4225
2022-07-26T17:53:54.302Z,4227
2022-07-26T17:59:06.595Z,4203
2022-07-26T18:04:18.927Z,4207
2022-07-26T18:09:30.971Z,4214
2022-07-26T18:14:43.160Z,4209
2022-07-26T18:19:55.398Z,4233
2022-07-26T18:25:07.821Z,4199
2022-07-26T18:30:20.053Z,4220
2022-07-26T18:35:32.671Z,4194
2022-07-26T18:40:45.120Z,4194
2022-07-26T18:45:57.386Z,4218
2022-07-26T18:51:09.450Z,4229
2022-07-26T18:56:22.079Z,4227
2022-07-26T19:01:34.637Z,4188
2022-07-26T19:06:46.795Z,4225
2022-07-26T19:11:59.266Z,4199
2022-07-26T19:17:11.446Z,4224
2022-07-26T19:22:23.907Z,4118
2022-07-26T19:27:36.640Z,4211
2022-07-26T19:32:48.861Z,4209
2022-07-26T19:38:01.593Z,4220
2022-07-26T19:43:13.911Z,4194
2022-07-26T19:48:26.286Z,4205
2022-07-26T19:53:38.662Z,4220
2022-07-26T19:58:51.026Z,4171
2022-07-26T20:04:03.438Z,4192
2022-07-26T20:09:15.810Z,4199
2022-07-26T20:14:28.234Z,4201
2022-07-26T20:19:40.540Z,4212
2022-07-26T20:24:52.812Z,4192
2022-07-26T20:30:05.155Z,4166
2022-07-26T20:35:17.444Z,4194
2022-07-26T20:40:29.953Z,4164
2022-07-26T20:45:42.234Z,4166
2022-07-26T20:50:54.604Z,4177
2022-07-26T20:56:06.902Z,4196
2022-07-26T21:01:19.174Z,4207
2022-07-26T21:06:31.357Z,4192
2022-07-26T21:11:43.714Z,4127
2022-07-26T21:16:56.091Z,4188
2022-07-26T21:22:08.156Z,4185
2022-07-26T21:27:20.476Z,4153
2022-07-26T21:32:32.890Z,4157
2022-07-26T21:37:46.445Z,4116
2022-07-26T21:42:57.745Z,4101
2022-07-26T21:48:10.263Z,4090
2022-07-26T21:53:22.501Z,4108
2022-07-26T21:58:36.739Z,4160
2022-07-26T22:03:47.138Z,4177
2022-07-26T22:08:59.678Z,4097
2022-07-26T22:14:11.889Z,4123
2022-07-26T22:19:24.381Z,4151
2022-07-26T22:24:36.655Z,4155
2022-07-26T22:29:49.165Z,4134
2022-07-26T22:35:01.465Z,4175
2022-07-26T22:40:13.955Z,4175
2022-07-26T22:45:26.391Z,4075
2022-07-26T22:50:38.659Z,4073
2022-07-26T22:55:51.082Z,4153
2022-07-26T23:01:03.587Z,4129
2022-07-26T23:06:19.415Z,4108
2022-07-26T23:11:28.083Z,4138
2022-07-26T23:16:40.312Z,4138
2022-07-26T23:21:52.486Z,4105
2022-07-26T23:27:04.965Z,4151
2022-07-26T23:32:17.574Z,4112
2022-07-26T23:37:29.792Z,4140
2022-07-26T23:42:42.003Z,4119
2022-07-26T23:47:54.337Z,4116
2022-07-26T23:53:06.828Z,4084
2022-07-26T23:58:19.201Z,4131
